BRX285 ESSB-ESGG
Flight info
| Callsign | BRX285 |
|---|---|
| Flight time | 0h 45m |
| Altitude | 30000 |
| Route | TINKA Y42 DEPEX N866 LAPSI DCT MOXAM |
| Aircraft | RJ85/M-SDFGIRWY/LB1 |
Departure
| Time | 2026-05-06 13:07 |
|---|---|
| Airport | Stockholm-Bromma Airport (ESSB) |
Arrival
| Time | 2026-05-06 13:52 |
|---|---|
| Airport | Göteborg Landvetter Airport (ESGG) |
| Time | Latitude | Longitude | Altitude | Speed | Heading |
|---|---|---|---|---|---|
| 2026-05-06 12:37 | 59.35632 | 17.94263 | 40 ft | 0 kts | 269° |
| 2026-05-06 13:03 | 59.35636 | 17.94245 | 40 ft | 3 kts | 312° |
| 2026-05-06 13:03 | 59.35667 | 17.94180 | 40 ft | 10 kts | 299° |
| 2026-05-06 13:03 | 59.35673 | 17.94102 | 40 ft | 5 kts | 261° |
| 2026-05-06 13:03 | 59.35682 | 17.94013 | 40 ft | 9 kts | 303° |
| 2026-05-06 13:04 | 59.35725 | 17.93889 | 40 ft | 12 kts | 305° |
| 2026-05-06 13:04 | 59.35772 | 17.93759 | 40 ft | 11 kts | 306° |
| 2026-05-06 13:04 | 59.35816 | 17.93641 | 40 ft | 12 kts | 306° |
| 2026-05-06 13:04 | 59.35872 | 17.93481 | 40 ft | 16 kts | 306° |
| 2026-05-06 13:05 | 59.35940 | 17.93289 | 40 ft | 18 kts | 304° |
| 2026-05-06 13:05 | 59.35988 | 17.93083 | 40 ft | 17 kts | 262° |
| 2026-05-06 13:05 | 59.35959 | 17.92881 | 39 ft | 13 kts | 238° |
| 2026-05-06 13:05 | 59.35907 | 17.92847 | 37 ft | 7 kts | 134° |
| 2026-05-06 13:06 | 59.35903 | 17.92857 | 37 ft | 0 kts | 123° |
| 2026-05-06 13:06 | 59.35858 | 17.92987 | 37 ft | 41 kts | 125° |
| 2026-05-06 13:06 | 59.35547 | 17.93853 | 40 ft | 111 kts | 125° |
| 2026-05-06 13:06 | 59.35025 | 17.95338 | 316 ft | 141 kts | 124° |
| 2026-05-06 13:07 | 59.34476 | 17.96887 | 1200 ft | 136 kts | 127° |
| 2026-05-06 13:07 | 59.33907 | 17.98466 | 1911 ft | 145 kts | 127° |
| 2026-05-06 13:07 | 59.33298 | 18.00048 | 2417 ft | 154 kts | 128° |
| 2026-05-06 13:07 | 59.32622 | 18.01909 | 2568 ft | 179 kts | 126° |
| 2026-05-06 13:08 | 59.31887 | 18.04014 | 2806 ft | 191 kts | 126° |
| 2026-05-06 13:08 | 59.30926 | 18.05901 | 3134 ft | 209 kts | 157° |
| 2026-05-06 13:08 | 59.29497 | 18.06063 | 3721 ft | 206 kts | 200° |
| 2026-05-06 13:08 | 59.28249 | 18.04713 | 4371 ft | 207 kts | 213° |
| 2026-05-06 13:09 | 59.26982 | 18.03184 | 4728 ft | 222 kts | 212° |
| 2026-05-06 13:09 | 59.25609 | 18.01570 | 5042 ft | 238 kts | 211° |
| 2026-05-06 13:09 | 59.24131 | 17.99922 | 5395 ft | 251 kts | 210° |
| 2026-05-06 13:09 | 59.22647 | 17.98406 | 5888 ft | 256 kts | 208° |
| 2026-05-06 13:10 | 59.21026 | 17.96891 | 6502 ft | 259 kts | 206° |
| 2026-05-06 13:10 | 59.19382 | 17.95423 | 7111 ft | 260 kts | 211° |
| 2026-05-06 13:10 | 59.18119 | 17.93028 | 7727 ft | 255 kts | 245° |
| 2026-05-06 13:10 | 59.17781 | 17.89674 | 8443 ft | 254 kts | 270° |
| 2026-05-06 13:11 | 59.17776 | 17.86223 | 9212 ft | 256 kts | 271° |
| 2026-05-06 13:11 | 59.17814 | 17.82756 | 10033 ft | 255 kts | 272° |
| 2026-05-06 13:11 | 59.17915 | 17.79279 | 10797 ft | 257 kts | 273° |
| 2026-05-06 13:11 | 59.17761 | 17.75794 | 11344 ft | 262 kts | 258° |
| 2026-05-06 13:12 | 59.17314 | 17.72330 | 11709 ft | 264 kts | 256° |
| 2026-05-06 13:12 | 59.16826 | 17.68791 | 11741 ft | 277 kts | 256° |
| 2026-05-06 13:12 | 59.16304 | 17.65083 | 11781 ft | 289 kts | 256° |
| 2026-05-06 13:12 | 59.15771 | 17.61239 | 11850 ft | 298 kts | 256° |
| 2026-05-06 13:13 | 59.15240 | 17.57324 | 12153 ft | 299 kts | 256° |
| 2026-05-06 13:13 | 59.14724 | 17.53387 | 12481 ft | 301 kts | 257° |
| 2026-05-06 13:13 | 59.14210 | 17.49437 | 12811 ft | 302 kts | 257° |
| 2026-05-06 13:13 | 59.13700 | 17.45474 | 13133 ft | 303 kts | 257° |
| 2026-05-06 13:14 | 59.13187 | 17.41493 | 13466 ft | 304 kts | 257° |
| 2026-05-06 13:14 | 59.12675 | 17.37493 | 13794 ft | 305 kts | 257° |
| 2026-05-06 13:14 | 59.12161 | 17.33471 | 14244 ft | 309 kts | 257° |
| 2026-05-06 13:14 | 59.11637 | 17.29332 | 14466 ft | 318 kts | 257° |
| 2026-05-06 13:15 | 59.11100 | 17.25166 | 14902 ft | 319 kts | 256° |
| 2026-05-06 13:15 | 59.10548 | 17.20985 | 15366 ft | 319 kts | 256° |
| 2026-05-06 13:15 | 59.09995 | 17.16798 | 15823 ft | 319 kts | 256° |
| 2026-05-06 13:15 | 59.09443 | 17.12609 | 16281 ft | 320 kts | 256° |
| 2026-05-06 13:16 | 59.08893 | 17.08408 | 16726 ft | 321 kts | 256° |
| 2026-05-06 13:16 | 59.08524 | 17.05572 | 17025 ft | 321 kts | 256° |
| 2026-05-06 13:16 | 59.07979 | 17.01350 | 17470 ft | 322 kts | 256° |
| 2026-05-06 13:16 | 59.07436 | 16.97187 | 17903 ft | 322 kts | 255° |
| 2026-05-06 13:17 | 59.06867 | 16.92963 | 18319 ft | 323 kts | 255° |
| 2026-05-06 13:17 | 59.06296 | 16.88738 | 18697 ft | 323 kts | 255° |
| 2026-05-06 13:17 | 59.05724 | 16.84509 | 19059 ft | 324 kts | 255° |
| 2026-05-06 13:17 | 59.05152 | 16.80273 | 19444 ft | 324 kts | 255° |
| 2026-05-06 13:18 | 59.04584 | 16.76033 | 19818 ft | 325 kts | 255° |
| 2026-05-06 13:18 | 59.04016 | 16.71782 | 20182 ft | 325 kts | 255° |
| 2026-05-06 13:18 | 59.03241 | 16.67685 | 20517 ft | 325 kts | 243° |
| 2026-05-06 13:18 | 59.02152 | 16.63816 | 20851 ft | 326 kts | 242° |
| 2026-05-06 13:19 | 59.01078 | 16.59918 | 21207 ft | 327 kts | 243° |
| 2026-05-06 13:19 | 59.00044 | 16.55988 | 21547 ft | 327 kts | 244° |
| 2026-05-06 13:19 | 58.99048 | 16.52018 | 21898 ft | 328 kts | 245° |
| 2026-05-06 13:19 | 58.98067 | 16.48003 | 22238 ft | 328 kts | 245° |
| 2026-05-06 13:20 | 58.97107 | 16.43991 | 22582 ft | 329 kts | 246° |
| 2026-05-06 13:20 | 58.96155 | 16.39947 | 22902 ft | 330 kts | 245° |
| 2026-05-06 13:20 | 58.95197 | 16.35910 | 23225 ft | 330 kts | 245° |
| 2026-05-06 13:20 | 58.94239 | 16.31859 | 23538 ft | 331 kts | 245° |
| 2026-05-06 13:21 | 58.93276 | 16.27798 | 23778 ft | 332 kts | 245° |
| 2026-05-06 13:21 | 58.92314 | 16.23731 | 24030 ft | 333 kts | 245° |
| 2026-05-06 13:21 | 58.91355 | 16.19650 | 24278 ft | 334 kts | 245° |
| 2026-05-06 13:21 | 58.90392 | 16.15544 | 24515 ft | 335 kts | 245° |
| 2026-05-06 13:22 | 58.89407 | 16.11424 | 24616 ft | 340 kts | 245° |
| 2026-05-06 13:22 | 58.88397 | 16.07245 | 24618 ft | 347 kts | 244° |
| 2026-05-06 13:22 | 58.87363 | 16.02971 | 24636 ft | 354 kts | 245° |
| 2026-05-06 13:22 | 58.86329 | 15.98646 | 24846 ft | 355 kts | 245° |
| 2026-05-06 13:23 | 58.85287 | 15.94331 | 25113 ft | 354 kts | 244° |
| 2026-05-06 13:23 | 58.84248 | 15.90027 | 25402 ft | 353 kts | 244° |
| 2026-05-06 13:23 | 58.83218 | 15.85745 | 25679 ft | 352 kts | 244° |
| 2026-05-06 13:23 | 58.82191 | 15.81456 | 25957 ft | 351 kts | 244° |
| 2026-05-06 13:24 | 58.81162 | 15.77201 | 26227 ft | 350 kts | 244° |
| 2026-05-06 13:24 | 58.80123 | 15.72974 | 26494 ft | 349 kts | 243° |
| 2026-05-06 13:24 | 58.79083 | 15.68755 | 26758 ft | 348 kts | 243° |
| 2026-05-06 13:24 | 58.78046 | 15.64548 | 27025 ft | 347 kts | 243° |
| 2026-05-06 13:25 | 58.77017 | 15.60358 | 27294 ft | 346 kts | 243° |
| 2026-05-06 13:25 | 58.75994 | 15.56176 | 27568 ft | 344 kts | 243° |
| 2026-05-06 13:25 | 58.74978 | 15.52002 | 27835 ft | 344 kts | 243° |
| 2026-05-06 13:25 | 58.73967 | 15.47844 | 28072 ft | 343 kts | 243° |
| 2026-05-06 13:26 | 58.72942 | 15.43706 | 28330 ft | 342 kts | 242° |
| 2026-05-06 13:26 | 58.71911 | 15.39584 | 28582 ft | 341 kts | 242° |
| 2026-05-06 13:26 | 58.70884 | 15.35486 | 28921 ft | 337 kts | 242° |
| 2026-05-06 13:26 | 58.69881 | 15.31466 | 29515 ft | 328 kts | 242° |
| 2026-05-06 13:27 | 58.68927 | 15.27604 | 29816 ft | 314 kts | 242° |
| 2026-05-06 13:27 | 58.67040 | 15.20009 | 29946 ft | 319 kts | 242° |
| 2026-05-06 13:28 | 58.65095 | 15.12201 | 29957 ft | 328 kts | 242° |
| 2026-05-06 13:28 | 58.63102 | 15.04229 | 29964 ft | 333 kts | 242° |
| 2026-05-06 13:29 | 58.61090 | 14.96236 | 29967 ft | 333 kts | 242° |
| 2026-05-06 13:29 | 58.59076 | 14.88240 | 29973 ft | 334 kts | 242° |
| 2026-05-06 13:30 | 58.57045 | 14.80220 | 29968 ft | 335 kts | 242° |
| 2026-05-06 13:30 | 58.55001 | 14.72199 | 29966 ft | 335 kts | 242° |
| 2026-05-06 13:31 | 58.52951 | 14.64131 | 29969 ft | 337 kts | 242° |
| 2026-05-06 13:31 | 58.50885 | 14.56079 | 29967 ft | 337 kts | 242° |
| 2026-05-06 13:32 | 58.48819 | 14.48043 | 29970 ft | 337 kts | 242° |
| 2026-05-06 13:32 | 58.46747 | 14.39991 | 29968 ft | 338 kts | 242° |
| 2026-05-06 13:33 | 58.44664 | 14.31948 | 29960 ft | 338 kts | 241° |
| 2026-05-06 13:33 | 58.42567 | 14.23892 | 29966 ft | 339 kts | 241° |
| 2026-05-06 13:34 | 58.40472 | 14.15856 | 28828 ft | 341 kts | 242° |
| 2026-05-06 13:34 | 58.39402 | 14.11777 | 27852 ft | 345 kts | 242° |
| 2026-05-06 13:34 | 58.38321 | 14.07666 | 26885 ft | 349 kts | 243° |
| 2026-05-06 13:34 | 58.37236 | 14.03493 | 25921 ft | 352 kts | 243° |
| 2026-05-06 13:35 | 58.36154 | 13.99353 | 24970 ft | 356 kts | 243° |
| 2026-05-06 13:35 | 58.35027 | 13.95067 | 23990 ft | 360 kts | 243° |
| 2026-05-06 13:35 | 58.33907 | 13.90770 | 23064 ft | 362 kts | 244° |
| 2026-05-06 13:35 | 58.32810 | 13.86574 | 22666 ft | 348 kts | 244° |
| 2026-05-06 13:36 | 58.31748 | 13.82519 | 22274 ft | 337 kts | 244° |
| 2026-05-06 13:36 | 58.30708 | 13.78563 | 21632 ft | 333 kts | 244° |
| 2026-05-06 13:36 | 58.29673 | 13.74639 | 20958 ft | 332 kts | 244° |
| 2026-05-06 13:36 | 58.28637 | 13.70726 | 20270 ft | 331 kts | 244° |
| 2026-05-06 13:37 | 58.27609 | 13.66864 | 19617 ft | 331 kts | 244° |
| 2026-05-06 13:37 | 58.26553 | 13.62916 | 18947 ft | 330 kts | 244° |
| 2026-05-06 13:37 | 58.25510 | 13.59037 | 18294 ft | 330 kts | 243° |
| 2026-05-06 13:37 | 58.24465 | 13.55168 | 17560 ft | 329 kts | 243° |
| 2026-05-06 13:38 | 58.23422 | 13.51308 | 16892 ft | 328 kts | 243° |
| 2026-05-06 13:38 | 58.22385 | 13.47471 | 16233 ft | 326 kts | 243° |
| 2026-05-06 13:38 | 58.21351 | 13.43645 | 15579 ft | 325 kts | 243° |
| 2026-05-06 13:38 | 58.20325 | 13.39839 | 14930 ft | 324 kts | 243° |
| 2026-05-06 13:39 | 58.19299 | 13.36039 | 14305 ft | 323 kts | 243° |
| 2026-05-06 13:39 | 58.18289 | 13.32292 | 13700 ft | 323 kts | 243° |
| 2026-05-06 13:39 | 58.17260 | 13.28468 | 13058 ft | 321 kts | 243° |
| 2026-05-06 13:39 | 58.16258 | 13.24759 | 12463 ft | 319 kts | 243° |
| 2026-05-06 13:40 | 58.15239 | 13.21055 | 11972 ft | 314 kts | 243° |
| 2026-05-06 13:40 | 58.14250 | 13.17484 | 11789 ft | 300 kts | 243° |
| 2026-05-06 13:40 | 58.13277 | 13.13940 | 11117 ft | 305 kts | 243° |
| 2026-05-06 13:40 | 58.12295 | 13.10344 | 10709 ft | 300 kts | 243° |
| 2026-05-06 13:41 | 58.11357 | 13.06937 | 10612 ft | 286 kts | 243° |
| 2026-05-06 13:41 | 58.10458 | 13.03676 | 10538 ft | 273 kts | 242° |
| 2026-05-06 13:41 | 58.09587 | 13.00528 | 10310 ft | 268 kts | 242° |
| 2026-05-06 13:41 | 58.08729 | 12.97415 | 10024 ft | 267 kts | 242° |
| 2026-05-06 13:42 | 58.07870 | 12.94303 | 9684 ft | 267 kts | 242° |
| 2026-05-06 13:42 | 58.07016 | 12.91204 | 9313 ft | 266 kts | 242° |
| 2026-05-06 13:42 | 58.06166 | 12.88115 | 8951 ft | 265 kts | 242° |
| 2026-05-06 13:42 | 58.05311 | 12.85034 | 8570 ft | 264 kts | 243° |
| 2026-05-06 13:43 | 58.04474 | 12.81991 | 8340 ft | 260 kts | 243° |
| 2026-05-06 13:43 | 58.03637 | 12.78969 | 8018 ft | 259 kts | 242° |
| 2026-05-06 13:43 | 58.02835 | 12.76064 | 7701 ft | 258 kts | 242° |
| 2026-05-06 13:43 | 58.02002 | 12.73055 | 7378 ft | 257 kts | 242° |
| 2026-05-06 13:44 | 58.01170 | 12.70042 | 6976 ft | 261 kts | 242° |
| 2026-05-06 13:44 | 58.00329 | 12.67011 | 6654 ft | 260 kts | 242° |
| 2026-05-06 13:44 | 57.99498 | 12.64003 | 6340 ft | 259 kts | 242° |
| 2026-05-06 13:44 | 57.98666 | 12.60994 | 6018 ft | 258 kts | 242° |
| 2026-05-06 13:45 | 57.97816 | 12.58022 | 5690 ft | 257 kts | 239° |
| 2026-05-06 13:45 | 57.95017 | 12.54106 | 4990 ft | 255 kts | 206° |
| 2026-05-06 13:45 | 57.93439 | 12.52684 | 4864 ft | 246 kts | 205° |
| 2026-05-06 13:46 | 57.91916 | 12.51357 | 4829 ft | 236 kts | 205° |
| 2026-05-06 13:46 | 57.90467 | 12.50064 | 4841 ft | 225 kts | 205° |
| 2026-05-06 13:46 | 57.89085 | 12.48827 | 4823 ft | 216 kts | 205° |
| 2026-05-06 13:46 | 57.87764 | 12.47652 | 4864 ft | 202 kts | 205° |
| 2026-05-06 13:47 | 57.86571 | 12.46565 | 4840 ft | 181 kts | 205° |
| 2026-05-06 13:47 | 57.85457 | 12.45539 | 4543 ft | 177 kts | 206° |
| 2026-05-06 13:47 | 57.84353 | 12.44524 | 4269 ft | 177 kts | 206° |
| 2026-05-06 13:47 | 57.83265 | 12.43525 | 4018 ft | 176 kts | 206° |
| 2026-05-06 13:48 | 57.82154 | 12.42508 | 3767 ft | 175 kts | 206° |
| 2026-05-06 13:48 | 57.81062 | 12.41505 | 3531 ft | 175 kts | 206° |
| 2026-05-06 13:48 | 57.79978 | 12.40500 | 3280 ft | 172 kts | 207° |
| 2026-05-06 13:48 | 57.78912 | 12.39513 | 3028 ft | 170 kts | 207° |
| 2026-05-06 13:49 | 57.77847 | 12.38540 | 2901 ft | 171 kts | 207° |
| 2026-05-06 13:49 | 57.76768 | 12.37558 | 2591 ft | 171 kts | 207° |
| 2026-05-06 13:49 | 57.75708 | 12.36587 | 2340 ft | 169 kts | 207° |
| 2026-05-06 13:49 | 57.74657 | 12.35617 | 2155 ft | 168 kts | 208° |
| 2026-05-06 13:50 | 57.73608 | 12.34667 | 1882 ft | 165 kts | 208° |
| 2026-05-06 13:50 | 57.72603 | 12.33760 | 1661 ft | 158 kts | 210° |
| 2026-05-06 13:50 | 57.71658 | 12.32886 | 1435 ft | 139 kts | 209° |
| 2026-05-06 13:50 | 57.70828 | 12.32123 | 1282 ft | 131 kts | 209° |
| 2026-05-06 13:51 | 57.69999 | 12.31366 | 1081 ft | 132 kts | 210° |
| 2026-05-06 13:51 | 57.69199 | 12.30654 | 912 ft | 126 kts | 208° |
| 2026-05-06 13:51 | 57.68414 | 12.29927 | 743 ft | 125 kts | 209° |
| 2026-05-06 13:51 | 57.67628 | 12.29211 | 554 ft | 124 kts | 211° |
| 2026-05-06 13:52 | 57.66940 | 12.28576 | 513 ft | 92 kts | 202° |
| 2026-05-06 13:52 | 57.66533 | 12.28212 | 511 ft | 44 kts | 206° |
| 2026-05-06 13:52 | 57.66321 | 12.28014 | 510 ft | 26 kts | 206° |
| 2026-05-06 13:52 | 57.66188 | 12.27918 | 509 ft | 18 kts | 176° |
| 2026-05-06 13:53 | 57.66115 | 12.28048 | 508 ft | 11 kts | 117° |
| 2026-05-06 13:53 | 57.66114 | 12.28159 | 509 ft | 8 kts | 53° |
| 2026-05-06 13:53 | 57.66143 | 12.28198 | 509 ft | 0 kts | 28° |
| 2026-05-06 13:53 | 57.66148 | 12.28203 | 509 ft | 3 kts | 26° |
| 2026-05-06 13:54 | 57.66172 | 12.28225 | 509 ft | 0 kts | 26° |
| 2026-05-06 13:54 | 57.66176 | 12.28229 | 509 ft | 3 kts | 25° |
| 2026-05-06 13:54 | 57.66217 | 12.28265 | 510 ft | 10 kts | 25° |
| 2026-05-06 13:54 | 57.66301 | 12.28341 | 510 ft | 17 kts | 26° |
| 2026-05-06 13:55 | 57.66424 | 12.28455 | 511 ft | 23 kts | 26° |
| 2026-05-06 13:55 | 57.66583 | 12.28599 | 512 ft | 27 kts | 25° |
| 2026-05-06 13:55 | 57.66759 | 12.28759 | 512 ft | 28 kts | 26° |
| 2026-05-06 13:55 | 57.66930 | 12.28908 | 513 ft | 26 kts | 26° |
| 2026-05-06 13:56 | 57.67089 | 12.29058 | 514 ft | 25 kts | 27° |
| 2026-05-06 13:56 | 57.67224 | 12.29181 | 514 ft | 16 kts | 25° |
| 2026-05-06 13:56 | 57.67266 | 12.29265 | 520 ft | 8 kts | 97° |
| 2026-05-06 13:56 | 57.67243 | 12.29366 | 516 ft | 9 kts | 115° |
| 2026-05-06 13:57 | 57.67213 | 12.29482 | 516 ft | 10 kts | 115° |
| 2026-05-06 13:57 | 57.67184 | 12.29536 | 516 ft | 5 kts | 191° |
| 2026-05-06 13:57 | 57.67146 | 12.29506 | 516 ft | 7 kts | 205° |
| 2026-05-06 13:57 | 57.67119 | 12.29441 | 516 ft | 6 kts | 250° |
| 2026-05-06 13:58 | 57.67108 | 12.29386 | 516 ft | 0 kts | 251° |